Rye, New Hampshire
Current Conditions -  °F | °C
As of 5:58 AM on Friday 19 Dec 2014 (Local Time) from KPSM Reporting Station
Scattered Clouds Scattered Clouds  
Wind Chill: 24°   Ceiling: Unl
Heat Index: 30°   Visibility: 10mi
Dew Point: 22°   Wind: 6mph
Humidity: 72%   Direction: 280°W
Pressure: 29.85"   Gusts: NA
Location:  43.01°N, 70.77°W
Report Text: KPSM 191058Z 28005KT 10SM FEW035 SCT055 M01/M06 A2985 RMK AO2A SLP113 T10121057
Loading
Personal Weather Stations






























Interactive Weather Map New forecast layout! Learn more

10-Day Weather Forecast

Advertisements
Track Severe Weather on mobile